sensor_id;sensor_type;location;lat;lon;timestamp;temperature;humidity
75161;DHT22;63738;50.096;8.716;2022-11-20T00:00:03;4.60;80.70
75161;DHT22;63738;50.096;8.716;2022-11-20T00:02:29;4.60;80.80
75161;DHT22;63738;50.096;8.716;2022-11-20T00:04:55;4.50;80.80
75161;DHT22;63738;50.096;8.716;2022-11-20T00:07:20;4.50;80.70
75161;DHT22;63738;50.096;8.716;2022-11-20T00:09:46;4.40;80.90
75161;DHT22;63738;50.096;8.716;2022-11-20T00:12:12;4.50;80.80
75161;DHT22;63738;50.096;8.716;2022-11-20T00:14:37;4.30;81.00
75161;DHT22;63738;50.096;8.716;2022-11-20T00:17:03;4.40;81.20
75161;DHT22;63738;50.096;8.716;2022-11-20T00:19:29;4.50;81.20
75161;DHT22;63738;50.096;8.716;2022-11-20T00:21:55;4.60;80.80
75161;DHT22;63738;50.096;8.716;2022-11-20T00:24:21;4.60;80.90
75161;DHT22;63738;50.096;8.716;2022-11-20T00:26:46;4.50;80.60
75161;DHT22;63738;50.096;8.716;2022-11-20T00:29:12;4.50;80.70
75161;DHT22;63738;50.096;8.716;2022-11-20T00:31:38;4.40;81.10
75161;DHT22;63738;50.096;8.716;2022-11-20T00:34:03;4.40;80.90
75161;DHT22;63738;50.096;8.716;2022-11-20T00:36:32;4.30;81.10
75161;DHT22;63738;50.096;8.716;2022-11-20T00:38:59;4.30;81.30
75161;DHT22;63738;50.096;8.716;2022-11-20T00:41:26;4.40;81.40
75161;DHT22;63738;50.096;8.716;2022-11-20T00:43:53;4.50;81.00
75161;DHT22;63738;50.096;8.716;2022-11-20T00:46:24;4.40;80.90
75161;DHT22;63738;50.096;8.716;2022-11-20T00:48:50;4.40;81.00
75161;DHT22;63738;50.096;8.716;2022-11-20T00:51:21;4.50;81.00
75161;DHT22;63738;50.096;8.716;2022-11-20T00:53:47;4.60;81.10
75161;DHT22;63738;50.096;8.716;2022-11-20T00:56:15;4.60;80.90
75161;DHT22;63738;50.096;8.716;2022-11-20T00:58:43;4.60;81.00
75161;DHT22;63738;50.096;8.716;2022-11-20T01:01:27;4.70;81.00
75161;DHT22;63738;50.096;8.716;2022-11-20T01:03:57;4.70;80.90
75161;DHT22;63738;50.096;8.716;2022-11-20T01:06:26;4.60;80.80
75161;DHT22;63738;50.096;8.716;2022-11-20T01:08:54;4.60;81.00
75161;DHT22;63738;50.096;8.716;2022-11-20T01:11:26;4.60;81.10
75161;DHT22;63738;50.096;8.716;2022-11-20T01:13:53;4.50;81.20
75161;DHT22;63738;50.096;8.716;2022-11-20T01:16:21;4.50;81.10
75161;DHT22;63738;50.096;8.716;2022-11-20T01:18:50;4.50;81.20
75161;DHT22;63738;50.096;8.716;2022-11-20T01:21:21;4.50;81.30
75161;DHT22;63738;50.096;8.716;2022-11-20T01:23:47;4.50;81.40
75161;DHT22;63738;50.096;8.716;2022-11-20T01:26:14;4.50;81.40
75161;DHT22;63738;50.096;8.716;2022-11-20T01:28:41;4.40;81.60
75161;DHT22;63738;50.096;8.716;2022-11-20T01:33:44;4.30;82.00
75161;DHT22;63738;50.096;8.716;2022-11-20T01:36:10;4.50;81.80
75161;DHT22;63738;50.096;8.716;2022-11-20T01:38:36;4.30;81.80
75161;DHT22;63738;50.096;8.716;2022-11-20T01:41:02;4.20;82.00
75161;DHT22;63738;50.096;8.716;2022-11-20T01:43:28;4.30;82.20
75161;DHT22;63738;50.096;8.716;2022-11-20T01:48:23;4.30;82.20
75161;DHT22;63738;50.096;8.716;2022-11-20T01:50:52;4.40;82.00
75161;DHT22;63738;50.096;8.716;2022-11-20T01:53:21;4.40;81.80
75161;DHT22;63738;50.096;8.716;2022-11-20T01:55:51;4.30;82.10
75161;DHT22;63738;50.096;8.716;2022-11-20T01:58:19;4.40;82.00
75161;DHT22;63738;50.096;8.716;2022-11-20T02:00:46;4.50;82.10
75161;DHT22;63738;50.096;8.716;2022-11-20T02:03:15;4.30;82.00
75161;DHT22;63738;50.096;8.716;2022-11-20T02:05:59;4.20;82.10
75161;DHT22;63738;50.096;8.716;2022-11-20T02:08:28;4.20;82.60
75161;DHT22;63738;50.096;8.716;2022-11-20T02:10:53;4.30;82.60
75161;DHT22;63738;50.096;8.716;2022-11-20T02:13:19;4.30;82.40
75161;DHT22;63738;50.096;8.716;2022-11-20T02:16:04;4.30;82.70
75161;DHT22;63738;50.096;8.716;2022-11-20T02:18:33;4.10;82.80
75161;DHT22;63738;50.096;8.716;2022-11-20T02:21:19;4.10;82.70
75161;DHT22;63738;50.096;8.716;2022-11-20T02:24:06;4.00;83.20
75161;DHT22;63738;50.096;8.716;2022-11-20T02:26:49;4.20;83.10
75161;DHT22;63738;50.096;8.716;2022-11-20T02:29:23;4.20;83.20
75161;DHT22;63738;50.096;8.716;2022-11-20T02:31:50;4.20;83.50
75161;DHT22;63738;50.096;8.716;2022-11-20T02:34:16;4.20;83.40
75161;DHT22;63738;50.096;8.716;2022-11-20T02:36:42;4.50;82.90
75161;DHT22;63738;50.096;8.716;2022-11-20T02:39:09;4.50;82.40
75161;DHT22;63738;50.096;8.716;2022-11-20T02:41:37;4.30;82.90
75161;DHT22;63738;50.096;8.716;2022-11-20T02:44:04;4.20;83.20
75161;DHT22;63738;50.096;8.716;2022-11-20T02:46:31;4.30;83.20
75161;DHT22;63738;50.096;8.716;2022-11-20T02:48:57;4.30;83.20
75161;DHT22;63738;50.096;8.716;2022-11-20T02:51:23;4.20;83.70
75161;DHT22;63738;50.096;8.716;2022-11-20T02:56:56;4.20;83.50
75161;DHT22;63738;50.096;8.716;2022-11-20T02:59:22;4.30;83.20
75161;DHT22;63738;50.096;8.716;2022-11-20T03:01:47;4.10;83.30
75161;DHT22;63738;50.096;8.716;2022-11-20T03:04:13;4.00;83.60
75161;DHT22;63738;50.096;8.716;2022-11-20T03:06:39;3.90;83.90
75161;DHT22;63738;50.096;8.716;2022-11-20T03:09:05;3.90;83.80
75161;DHT22;63738;50.096;8.716;2022-11-20T03:11:30;3.90;83.80
75161;DHT22;63738;50.096;8.716;2022-11-20T03:13:56;3.90;83.70
75161;DHT22;63738;50.096;8.716;2022-11-20T03:16:22;3.90;83.60
75161;DHT22;63738;50.096;8.716;2022-11-20T03:18:48;3.80;83.50
75161;DHT22;63738;50.096;8.716;2022-11-20T03:21:15;3.80;83.70
75161;DHT22;63738;50.096;8.716;2022-11-20T03:23:40;3.80;83.80
75161;DHT22;63738;50.096;8.716;2022-11-20T03:26:08;3.80;83.60
75161;DHT22;63738;50.096;8.716;2022-11-20T03:28:34;3.80;83.00
75161;DHT22;63738;50.096;8.716;2022-11-20T03:31:06;3.70;83.40
75161;DHT22;63738;50.096;8.716;2022-11-20T03:33:32;3.60;83.50
75161;DHT22;63738;50.096;8.716;2022-11-20T03:36:04;3.60;83.60
75161;DHT22;63738;50.096;8.716;2022-11-20T03:38:30;3.60;83.90
75161;DHT22;63738;50.096;8.716;2022-11-20T03:41:05;3.70;83.60
75161;DHT22;63738;50.096;8.716;2022-11-20T03:43:31;3.80;83.40
75161;DHT22;63738;50.096;8.716;2022-11-20T03:45:57;3.70;83.60
75161;DHT22;63738;50.096;8.716;2022-11-20T03:48:22;3.70;83.20
75161;DHT22;63738;50.096;8.716;2022-11-20T03:50:48;3.60;83.20
75161;DHT22;63738;50.096;8.716;2022-11-20T03:53:15;3.70;83.40
75161;DHT22;63738;50.096;8.716;2022-11-20T03:55:40;3.60;83.70
75161;DHT22;63738;50.096;8.716;2022-11-20T03:58:06;3.60;83.60
75161;DHT22;63738;50.096;8.716;2022-11-20T04:00:32;3.70;83.50
75161;DHT22;63738;50.096;8.716;2022-11-20T04:02:58;3.60;83.60
75161;DHT22;63738;50.096;8.716;2022-11-20T04:05:24;3.60;83.40
75161;DHT22;63738;50.096;8.716;2022-11-20T04:07:50;3.70;83.20
75161;DHT22;63738;50.096;8.716;2022-11-20T04:10:15;3.70;83.30
75161;DHT22;63738;50.096;8.716;2022-11-20T04:12:41;3.80;83.10
75161;DHT22;63738;50.096;8.716;2022-11-20T04:15:07;3.60;83.10
75161;DHT22;63738;50.096;8.716;2022-11-20T04:17:32;3.80;83.10
75161;DHT22;63738;50.096;8.716;2022-11-20T04:19:58;3.90;82.80
75161;DHT22;63738;50.096;8.716;2022-11-20T04:22:24;3.80;83.00
75161;DHT22;63738;50.096;8.716;2022-11-20T04:24:49;3.90;82.50
75161;DHT22;63738;50.096;8.716;2022-11-20T04:27:15;3.80;82.90
75161;DHT22;63738;50.096;8.716;2022-11-20T04:29:40;3.90;83.10
75161;DHT22;63738;50.096;8.716;2022-11-20T04:32:06;3.70;82.90
75161;DHT22;63738;50.096;8.716;2022-11-20T04:34:31;3.80;83.20
75161;DHT22;63738;50.096;8.716;2022-11-20T04:36:57;3.80;83.20
75161;DHT22;63738;50.096;8.716;2022-11-20T04:39:23;3.90;82.90
75161;DHT22;63738;50.096;8.716;2022-11-20T04:41:48;3.60;83.40
75161;DHT22;63738;50.096;8.716;2022-11-20T04:44:34;3.90;83.00
75161;DHT22;63738;50.096;8.716;2022-11-20T04:46:59;3.90;82.70
75161;DHT22;63738;50.096;8.716;2022-11-20T04:49:25;3.80;82.70
75161;DHT22;63738;50.096;8.716;2022-11-20T04:51:53;3.90;82.70
75161;DHT22;63738;50.096;8.716;2022-11-20T04:54:19;4.00;82.60
75161;DHT22;63738;50.096;8.716;2022-11-20T04:56:49;3.90;82.90
75161;DHT22;63738;50.096;8.716;2022-11-20T04:59:14;4.00;82.80
75161;DHT22;63738;50.096;8.716;2022-11-20T05:01:40;4.00;82.90
75161;DHT22;63738;50.096;8.716;2022-11-20T05:04:06;4.10;83.30
75161;DHT22;63738;50.096;8.716;2022-11-20T05:06:32;3.90;82.80
75161;DHT22;63738;50.096;8.716;2022-11-20T05:08:58;3.90;83.10
75161;DHT22;63738;50.096;8.716;2022-11-20T05:11:24;4.10;83.00
75161;DHT22;63738;50.096;8.716;2022-11-20T05:13:51;4.00;82.40
75161;DHT22;63738;50.096;8.716;2022-11-20T05:16:19;3.90;82.80
75161;DHT22;63738;50.096;8.716;2022-11-20T05:18:45;3.90;82.70
75161;DHT22;63738;50.096;8.716;2022-11-20T05:21:12;3.90;83.00
75161;DHT22;63738;50.096;8.716;2022-11-20T05:23:38;4.00;83.20
75161;DHT22;63738;50.096;8.716;2022-11-20T05:26:06;4.10;82.90
75161;DHT22;63738;50.096;8.716;2022-11-20T05:28:32;4.00;82.80
75161;DHT22;63738;50.096;8.716;2022-11-20T05:31:05;3.70;83.20
75161;DHT22;63738;50.096;8.716;2022-11-20T05:33:32;3.60;83.30
75161;DHT22;63738;50.096;8.716;2022-11-20T05:36:04;3.50;83.90
75161;DHT22;63738;50.096;8.716;2022-11-20T05:38:30;3.70;83.70
75161;DHT22;63738;50.096;8.716;2022-11-20T05:41:03;3.70;83.80
75161;DHT22;63738;50.096;8.716;2022-11-20T05:43:34;3.60;83.80
75161;DHT22;63738;50.096;8.716;2022-11-20T05:46:02;3.70;83.60
75161;DHT22;63738;50.096;8.716;2022-11-20T05:48:28;3.90;83.80
75161;DHT22;63738;50.096;8.716;2022-11-20T05:50:53;4.00;83.60
75161;DHT22;63738;50.096;8.716;2022-11-20T05:53:19;4.10;83.20
75161;DHT22;63738;50.096;8.716;2022-11-20T05:55:44;4.20;83.00
75161;DHT22;63738;50.096;8.716;2022-11-20T05:58:10;4.20;82.90
75161;DHT22;63738;50.096;8.716;2022-11-20T06:00:36;4.20;82.90
75161;DHT22;63738;50.096;8.716;2022-11-20T06:03:02;4.20;83.10
75161;DHT22;63738;50.096;8.716;2022-11-20T06:05:27;4.10;83.20
75161;DHT22;63738;50.096;8.716;2022-11-20T06:07:53;4.00;83.80
75161;DHT22;63738;50.096;8.716;2022-11-20T06:10:19;4.40;83.50
75161;DHT22;63738;50.096;8.716;2022-11-20T06:12:44;4.30;83.30
75161;DHT22;63738;50.096;8.716;2022-11-20T06:15:10;4.20;83.70
75161;DHT22;63738;50.096;8.716;2022-11-20T06:17:37;4.40;83.80
75161;DHT22;63738;50.096;8.716;2022-11-20T06:20:02;4.30;83.00
75161;DHT22;63738;50.096;8.716;2022-11-20T06:22:28;4.30;83.00
75161;DHT22;63738;50.096;8.716;2022-11-20T06:24:54;4.10;83.30
75161;DHT22;63738;50.096;8.716;2022-11-20T06:27:19;4.10;83.30
75161;DHT22;63738;50.096;8.716;2022-11-20T06:29:45;4.20;83.20
75161;DHT22;63738;50.096;8.716;2022-11-20T06:32:10;4.30;83.40
75161;DHT22;63738;50.096;8.716;2022-11-20T06:34:36;4.20;83.60
75161;DHT22;63738;50.096;8.716;2022-11-20T06:37:02;4.20;83.40
75161;DHT22;63738;50.096;8.716;2022-11-20T06:39:27;4.20;83.70
75161;DHT22;63738;50.096;8.716;2022-11-20T06:41:53;4.20;83.40
75161;DHT22;63738;50.096;8.716;2022-11-20T06:44:18;4.40;83.40
75161;DHT22;63738;50.096;8.716;2022-11-20T06:46:44;4.60;83.20
75161;DHT22;63738;50.096;8.716;2022-11-20T06:49:09;4.60;83.00
75161;DHT22;63738;50.096;8.716;2022-11-20T06:51:35;4.60;83.10
75161;DHT22;63738;50.096;8.716;2022-11-20T06:54:00;4.40;83.10
75161;DHT22;63738;50.096;8.716;2022-11-20T06:56:26;4.20;83.50
75161;DHT22;63738;50.096;8.716;2022-11-20T06:58:52;4.40;83.80
75161;DHT22;63738;50.096;8.716;2022-11-20T07:01:17;4.60;83.40
75161;DHT22;63738;50.096;8.716;2022-11-20T07:03:43;4.50;83.30
75161;DHT22;63738;50.096;8.716;2022-11-20T07:06:09;4.50;82.70
75161;DHT22;63738;50.096;8.716;2022-11-20T07:08:35;4.60;82.60
75161;DHT22;63738;50.096;8.716;2022-11-20T07:11:03;4.40;82.80
75161;DHT22;63738;50.096;8.716;2022-11-20T07:13:30;4.30;83.20
75161;DHT22;63738;50.096;8.716;2022-11-20T07:16:00;4.30;83.20
75161;DHT22;63738;50.096;8.716;2022-11-20T07:18:26;4.30;83.50
75161;DHT22;63738;50.096;8.716;2022-11-20T07:20:52;4.30;83.60
75161;DHT22;63738;50.096;8.716;2022-11-20T07:23:17;4.40;83.40
75161;DHT22;63738;50.096;8.716;2022-11-20T07:25:43;4.40;83.00
75161;DHT22;63738;50.096;8.716;2022-11-20T07:28:08;4.00;83.50
75161;DHT22;63738;50.096;8.716;2022-11-20T07:30:36;3.80;84.10
75161;DHT22;63738;50.096;8.716;2022-11-20T07:33:01;3.50;84.60
75161;DHT22;63738;50.096;8.716;2022-11-20T07:35:27;3.50;85.10
75161;DHT22;63738;50.096;8.716;2022-11-20T07:37:53;3.50;85.30
75161;DHT22;63738;50.096;8.716;2022-11-20T07:40:18;3.50;85.30
75161;DHT22;63738;50.096;8.716;2022-11-20T07:42:49;3.70;85.30
75161;DHT22;63738;50.096;8.716;2022-11-20T07:45:15;3.60;85.10
75161;DHT22;63738;50.096;8.716;2022-11-20T07:47:41;3.70;85.10
75161;DHT22;63738;50.096;8.716;2022-11-20T07:50:07;3.70;84.90
75161;DHT22;63738;50.096;8.716;2022-11-20T07:52:32;3.40;85.60
75161;DHT22;63738;50.096;8.716;2022-11-20T07:54:58;3.60;85.80
75161;DHT22;63738;50.096;8.716;2022-11-20T07:57:24;3.70;85.30
75161;DHT22;63738;50.096;8.716;2022-11-20T07:59:49;3.80;85.20
75161;DHT22;63738;50.096;8.716;2022-11-20T08:02:15;3.90;85.10
75161;DHT22;63738;50.096;8.716;2022-11-20T08:04:40;3.50;85.40
75161;DHT22;63738;50.096;8.716;2022-11-20T08:07:06;3.80;85.50
75161;DHT22;63738;50.096;8.716;2022-11-20T08:09:31;4.10;85.20
75161;DHT22;63738;50.096;8.716;2022-11-20T08:11:57;4.20;84.70
75161;DHT22;63738;50.096;8.716;2022-11-20T08:14:42;4.30;84.90
75161;DHT22;63738;50.096;8.716;2022-11-20T08:17:07;4.30;84.30
75161;DHT22;63738;50.096;8.716;2022-11-20T08:19:33;4.40;84.80
75161;DHT22;63738;50.096;8.716;2022-11-20T08:21:59;4.40;84.70
75161;DHT22;63738;50.096;8.716;2022-11-20T08:24:24;4.50;84.30
75161;DHT22;63738;50.096;8.716;2022-11-20T08:26:52;4.50;84.10
75161;DHT22;63738;50.096;8.716;2022-11-20T08:29:18;4.60;84.20
75161;DHT22;63738;50.096;8.716;2022-11-20T08:31:43;4.50;84.20
75161;DHT22;63738;50.096;8.716;2022-11-20T08:34:09;4.40;84.40
75161;DHT22;63738;50.096;8.716;2022-11-20T08:36:35;4.60;85.00
75161;DHT22;63738;50.096;8.716;2022-11-20T08:39:01;4.70;84.80
75161;DHT22;63738;50.096;8.716;2022-11-20T08:41:26;4.70;84.50
75161;DHT22;63738;50.096;8.716;2022-11-20T08:43:57;4.90;84.60
75161;DHT22;63738;50.096;8.716;2022-11-20T08:46:24;5.00;84.30
75161;DHT22;63738;50.096;8.716;2022-11-20T08:48:51;5.00;84.30
75161;DHT22;63738;50.096;8.716;2022-11-20T08:51:17;4.80;84.90
75161;DHT22;63738;50.096;8.716;2022-11-20T08:53:43;4.80;84.90
75161;DHT22;63738;50.096;8.716;2022-11-20T08:56:09;4.90;84.70
75161;DHT22;63738;50.096;8.716;2022-11-20T08:58:35;4.80;84.60
75161;DHT22;63738;50.096;8.716;2022-11-20T09:01:01;5.00;84.60
75161;DHT22;63738;50.096;8.716;2022-11-20T09:03:27;4.80;84.10
75161;DHT22;63738;50.096;8.716;2022-11-20T09:06:04;4.80;84.80
75161;DHT22;63738;50.096;8.716;2022-11-20T09:08:30;5.00;84.60
75161;DHT22;63738;50.096;8.716;2022-11-20T09:10:57;5.00;84.30
75161;DHT22;63738;50.096;8.716;2022-11-20T09:13:24;5.10;84.10
75161;DHT22;63738;50.096;8.716;2022-11-20T09:15:53;5.20;83.80
75161;DHT22;63738;50.096;8.716;2022-11-20T09:18:20;5.30;84.30
75161;DHT22;63738;50.096;8.716;2022-11-20T09:20:45;5.60;83.70
75161;DHT22;63738;50.096;8.716;2022-11-20T09:23:11;5.80;83.50
75161;DHT22;63738;50.096;8.716;2022-11-20T09:25:36;5.80;83.50
75161;DHT22;63738;50.096;8.716;2022-11-20T09:28:02;5.90;83.10
75161;DHT22;63738;50.096;8.716;2022-11-20T09:30:27;6.10;82.80
75161;DHT22;63738;50.096;8.716;2022-11-20T09:32:53;6.00;83.00
75161;DHT22;63738;50.096;8.716;2022-11-20T09:35:19;6.00;83.20
75161;DHT22;63738;50.096;8.716;2022-11-20T09:37:45;6.20;82.80
75161;DHT22;63738;50.096;8.716;2022-11-20T09:40:28;6.20;82.70
75161;DHT22;63738;50.096;8.716;2022-11-20T09:43:12;6.10;82.60
75161;DHT22;63738;50.096;8.716;2022-11-20T09:46:07;6.20;82.70
75161;DHT22;63738;50.096;8.716;2022-11-20T09:56:40;6.40;82.70
75161;DHT22;63738;50.096;8.716;2022-11-20T09:59:07;6.00;82.20
75161;DHT22;63738;50.096;8.716;2022-11-20T10:01:38;6.00;83.00
75161;DHT22;63738;50.096;8.716;2022-11-20T10:04:17;6.00;82.90
75161;DHT22;63738;50.096;8.716;2022-11-20T10:07:11;5.90;83.30
75161;DHT22;63738;50.096;8.716;2022-11-20T10:09:40;6.10;83.30
75161;DHT22;63738;50.096;8.716;2022-11-20T10:20:46;5.90;83.30
75161;DHT22;63738;50.096;8.716;2022-11-20T10:26:04;5.60;83.70
75161;DHT22;63738;50.096;8.716;2022-11-20T10:28:52;5.70;84.30
75161;DHT22;63738;50.096;8.716;2022-11-20T10:31:46;5.90;84.10
75161;DHT22;63738;50.096;8.716;2022-11-20T10:37:13;5.90;84.10
75161;DHT22;63738;50.096;8.716;2022-11-20T10:42:11;5.70;84.30
75161;DHT22;63738;50.096;8.716;2022-11-20T10:44:46;5.70;84.60
75161;DHT22;63738;50.096;8.716;2022-11-20T10:47:30;5.80;84.40
75161;DHT22;63738;50.096;8.716;2022-11-20T10:50:02;5.70;84.60
75161;DHT22;63738;50.096;8.716;2022-11-20T10:55:43;5.60;84.80
75161;DHT22;63738;50.096;8.716;2022-11-20T10:58:14;5.70;85.00
75161;DHT22;63738;50.096;8.716;2022-11-20T11:00:42;5.70;84.70
75161;DHT22;63738;50.096;8.716;2022-11-20T11:03:28;5.80;84.50
75161;DHT22;63738;50.096;8.716;2022-11-20T11:06:14;5.90;84.30
75161;DHT22;63738;50.096;8.716;2022-11-20T11:08:41;6.10;84.30
75161;DHT22;63738;50.096;8.716;2022-11-20T11:11:21;6.20;84.20
75161;DHT22;63738;50.096;8.716;2022-11-20T11:13:47;6.30;84.00
75161;DHT22;63738;50.096;8.716;2022-11-20T11:16:21;6.40;83.50
75161;DHT22;63738;50.096;8.716;2022-11-20T11:18:47;6.30;83.50
75161;DHT22;63738;50.096;8.716;2022-11-20T11:21:13;6.40;83.80
75161;DHT22;63738;50.096;8.716;2022-11-20T11:23:46;6.20;83.50
75161;DHT22;63738;50.096;8.716;2022-11-20T11:26:24;6.20;83.90
75161;DHT22;63738;50.096;8.716;2022-11-20T11:28:59;6.10;83.80
75161;DHT22;63738;50.096;8.716;2022-11-20T11:31:30;6.10;83.90
75161;DHT22;63738;50.096;8.716;2022-11-20T11:34:07;6.20;84.10
75161;DHT22;63738;50.096;8.716;2022-11-20T11:36:34;6.40;83.80
75161;DHT22;63738;50.096;8.716;2022-11-20T11:39:02;6.40;83.60
75161;DHT22;63738;50.096;8.716;2022-11-20T11:41:31;6.40;83.90
75161;DHT22;63738;50.096;8.716;2022-11-20T11:47:02;6.50;83.70
75161;DHT22;63738;50.096;8.716;2022-11-20T11:49:28;6.60;83.60
75161;DHT22;63738;50.096;8.716;2022-11-20T11:52:12;6.50;83.80
75161;DHT22;63738;50.096;8.716;2022-11-20T11:54:53;6.50;83.90
75161;DHT22;63738;50.096;8.716;2022-11-20T11:57:28;6.60;83.90
75161;DHT22;63738;50.096;8.716;2022-11-20T12:00:10;6.60;83.80
75161;DHT22;63738;50.096;8.716;2022-11-20T12:05:56;6.70;83.50
75161;DHT22;63738;50.096;8.716;2022-11-20T12:08:37;6.50;83.40
75161;DHT22;63738;50.096;8.716;2022-11-20T12:11:31;6.30;84.20
75161;DHT22;63738;50.096;8.716;2022-11-20T12:14:03;6.10;84.60
75161;DHT22;63738;50.096;8.716;2022-11-20T12:16:34;5.90;84.90
75161;DHT22;63738;50.096;8.716;2022-11-20T12:19:01;6.20;85.00
75161;DHT22;63738;50.096;8.716;2022-11-20T12:21:34;6.20;84.80
75161;DHT22;63738;50.096;8.716;2022-11-20T12:30:13;6.30;84.20
75161;DHT22;63738;50.096;8.716;2022-11-20T12:41:36;5.90;85.40
75161;DHT22;63738;50.096;8.716;2022-11-20T12:58:39;5.90;85.30
75161;DHT22;63738;50.096;8.716;2022-11-20T13:06:54;5.90;85.60
75161;DHT22;63738;50.096;8.716;2022-11-20T13:09:22;5.70;86.10
75161;DHT22;63738;50.096;8.716;2022-11-20T13:19:57;5.80;86.30
75161;DHT22;63738;50.096;8.716;2022-11-20T13:22:27;5.80;86.40
75161;DHT22;63738;50.096;8.716;2022-11-20T13:24:54;5.80;86.20
75161;DHT22;63738;50.096;8.716;2022-11-20T13:27:23;5.70;86.40
75161;DHT22;63738;50.096;8.716;2022-11-20T13:30:12;5.70;86.50
75161;DHT22;63738;50.096;8.716;2022-11-20T13:35:33;5.90;86.60
75161;DHT22;63738;50.096;8.716;2022-11-20T13:40:26;6.10;86.40
75161;DHT22;63738;50.096;8.716;2022-11-20T13:45:28;6.00;86.40
75161;DHT22;63738;50.096;8.716;2022-11-20T13:47:55;5.70;86.60
75161;DHT22;63738;50.096;8.716;2022-11-20T13:50:46;5.50;87.30
75161;DHT22;63738;50.096;8.716;2022-11-20T13:53:57;5.70;87.10
75161;DHT22;63738;50.096;8.716;2022-11-20T14:01:58;6.00;86.60
75161;DHT22;63738;50.096;8.716;2022-11-20T14:04:32;6.00;86.50
75161;DHT22;63738;50.096;8.716;2022-11-20T14:06:59;6.10;86.40
75161;DHT22;63738;50.096;8.716;2022-11-20T14:09:26;6.00;86.50
75161;DHT22;63738;50.096;8.716;2022-11-20T14:11:52;5.90;86.40
75161;DHT22;63738;50.096;8.716;2022-11-20T14:14:20;5.80;87.00
75161;DHT22;63738;50.096;8.716;2022-11-20T14:16:46;5.80;87.00
75161;DHT22;63738;50.096;8.716;2022-11-20T14:19:23;5.90;86.80
75161;DHT22;63738;50.096;8.716;2022-11-20T14:24:42;6.10;86.80
75161;DHT22;63738;50.096;8.716;2022-11-20T14:27:19;6.30;86.50
75161;DHT22;63738;50.096;8.716;2022-11-20T14:29:47;6.30;86.40
75161;DHT22;63738;50.096;8.716;2022-11-20T14:32:16;6.40;86.30
75161;DHT22;63738;50.096;8.716;2022-11-20T14:34:44;6.60;85.90
75161;DHT22;63738;50.096;8.716;2022-11-20T14:37:12;6.60;86.00
75161;DHT22;63738;50.096;8.716;2022-11-20T14:39:47;6.60;85.70
75161;DHT22;63738;50.096;8.716;2022-11-20T14:42:19;6.70;85.40
75161;DHT22;63738;50.096;8.716;2022-11-20T14:44:45;6.70;85.60
75161;DHT22;63738;50.096;8.716;2022-11-20T14:47:13;6.70;85.60
75161;DHT22;63738;50.096;8.716;2022-11-20T14:49:40;6.70;85.50
75161;DHT22;63738;50.096;8.716;2022-11-20T14:52:14;6.80;85.40
75161;DHT22;63738;50.096;8.716;2022-11-20T14:54:58;6.80;85.50
75161;DHT22;63738;50.096;8.716;2022-11-20T14:57:33;6.70;85.40
75161;DHT22;63738;50.096;8.716;2022-11-20T15:02:45;6.70;85.40
75161;DHT22;63738;50.096;8.716;2022-11-20T15:05:11;6.70;85.60
75161;DHT22;63738;50.096;8.716;2022-11-20T15:07:39;6.70;85.60
75161;DHT22;63738;50.096;8.716;2022-11-20T15:10:25;6.60;85.30
75161;DHT22;63738;50.096;8.716;2022-11-20T15:12:57;6.70;85.30
75161;DHT22;63738;50.096;8.716;2022-11-20T15:15:32;6.70;85.50
75161;DHT22;63738;50.096;8.716;2022-11-20T15:18:01;6.60;85.60
75161;DHT22;63738;50.096;8.716;2022-11-20T15:20:30;6.70;85.50
75161;DHT22;63738;50.096;8.716;2022-11-20T15:22:56;6.50;86.00
75161;DHT22;63738;50.096;8.716;2022-11-20T15:25:22;6.50;85.90
75161;DHT22;63738;50.096;8.716;2022-11-20T15:27:52;6.50;86.00
75161;DHT22;63738;50.096;8.716;2022-11-20T15:30:20;6.40;86.20
75161;DHT22;63738;50.096;8.716;2022-11-20T15:32:46;6.50;86.30
75161;DHT22;63738;50.096;8.716;2022-11-20T15:35:14;6.40;86.40
75161;DHT22;63738;50.096;8.716;2022-11-20T15:37:40;6.40;86.50
75161;DHT22;63738;50.096;8.716;2022-11-20T15:40:06;6.40;86.40
75161;DHT22;63738;50.096;8.716;2022-11-20T15:42:33;6.30;86.70
75161;DHT22;63738;50.096;8.716;2022-11-20T15:44:59;6.20;86.80
75161;DHT22;63738;50.096;8.716;2022-11-20T15:47:28;6.20;86.90
75161;DHT22;63738;50.096;8.716;2022-11-20T15:49:54;6.20;86.90
75161;DHT22;63738;50.096;8.716;2022-11-20T15:52:19;6.30;86.70
75161;DHT22;63738;50.096;8.716;2022-11-20T15:54:45;6.10;86.90
75161;DHT22;63738;50.096;8.716;2022-11-20T15:57:10;6.10;87.10
75161;DHT22;63738;50.096;8.716;2022-11-20T15:59:36;6.10;87.20
75161;DHT22;63738;50.096;8.716;2022-11-20T16:02:15;6.20;86.90
75161;DHT22;63738;50.096;8.716;2022-11-20T16:04:41;6.20;86.80
75161;DHT22;63738;50.096;8.716;2022-11-20T16:07:06;6.30;86.80
75161;DHT22;63738;50.096;8.716;2022-11-20T16:09:32;6.30;86.60
75161;DHT22;63738;50.096;8.716;2022-11-20T16:11:58;6.30;86.70
75161;DHT22;63738;50.096;8.716;2022-11-20T16:14:27;6.30;86.70
75161;DHT22;63738;50.096;8.716;2022-11-20T16:17:11;6.30;86.70
75161;DHT22;63738;50.096;8.716;2022-11-20T16:19:37;6.40;86.80
75161;DHT22;63738;50.096;8.716;2022-11-20T16:22:03;6.40;86.70
75161;DHT22;63738;50.096;8.716;2022-11-20T16:24:28;6.40;86.60
75161;DHT22;63738;50.096;8.716;2022-11-20T16:26:54;6.40;86.60
75161;DHT22;63738;50.096;8.716;2022-11-20T16:29:20;6.40;86.60
75161;DHT22;63738;50.096;8.716;2022-11-20T16:31:46;6.50;86.50
75161;DHT22;63738;50.096;8.716;2022-11-20T16:34:12;6.40;86.60
75161;DHT22;63738;50.096;8.716;2022-11-20T16:36:41;6.30;86.70
75161;DHT22;63738;50.096;8.716;2022-11-20T16:39:07;6.30;86.80
75161;DHT22;63738;50.096;8.716;2022-11-20T16:41:34;6.20;87.10
75161;DHT22;63738;50.096;8.716;2022-11-20T16:44:01;6.30;87.10
75161;DHT22;63738;50.096;8.716;2022-11-20T16:46:31;6.30;87.00
75161;DHT22;63738;50.096;8.716;2022-11-20T16:49:31;6.30;86.90
75161;DHT22;63738;50.096;8.716;2022-11-20T16:51:50;6.30;87.10
75161;DHT22;63738;50.096;8.716;2022-11-20T16:54:16;6.30;87.10
75161;DHT22;63738;50.096;8.716;2022-11-20T16:56:42;6.30;87.20
75161;DHT22;63738;50.096;8.716;2022-11-20T16:59:07;6.30;87.00
75161;DHT22;63738;50.096;8.716;2022-11-20T17:01:33;6.30;87.10
75161;DHT22;63738;50.096;8.716;2022-11-20T17:04:03;6.30;87.10
75161;DHT22;63738;50.096;8.716;2022-11-20T17:06:34;6.40;87.00
75161;DHT22;63738;50.096;8.716;2022-11-20T17:08:59;6.30;87.20
75161;DHT22;63738;50.096;8.716;2022-11-20T17:11:26;6.40;87.30
75161;DHT22;63738;50.096;8.716;2022-11-20T17:13:53;6.40;87.30
75161;DHT22;63738;50.096;8.716;2022-11-20T17:16:21;6.60;87.10
75161;DHT22;63738;50.096;8.716;2022-11-20T17:18:47;6.50;87.20
75161;DHT22;63738;50.096;8.716;2022-11-20T17:21:17;6.50;87.30
75161;DHT22;63738;50.096;8.716;2022-11-20T17:23:44;6.50;87.20
75161;DHT22;63738;50.096;8.716;2022-11-20T17:26:15;6.50;87.30
75161;DHT22;63738;50.096;8.716;2022-11-20T17:28:45;6.50;87.20
75161;DHT22;63738;50.096;8.716;2022-11-20T17:31:13;6.60;87.30
75161;DHT22;63738;50.096;8.716;2022-11-20T17:33:41;6.60;87.30
75161;DHT22;63738;50.096;8.716;2022-11-20T17:36:08;6.70;87.10
75161;DHT22;63738;50.096;8.716;2022-11-20T17:38:34;6.70;87.20